createdAt,value
2018-05-19T00:01:44.882Z,8.13
2018-05-19T00:04:12.762Z,7.70
2018-05-19T00:06:41.277Z,9.00
2018-05-19T00:09:09.181Z,7.60
2018-05-19T00:11:37.069Z,8.97
2018-05-19T00:14:04.957Z,8.80
2018-05-19T00:16:32.842Z,9.00
2018-05-19T00:19:00.751Z,9.60
2018-05-19T00:21:28.666Z,9.20
2018-05-19T00:23:56.572Z,9.30
2018-05-19T00:26:24.582Z,8.20
2018-05-19T00:28:52.487Z,8.90
2018-05-19T00:31:20.569Z,8.37
2018-05-19T00:33:48.493Z,8.10
2018-05-19T00:36:16.387Z,7.50
2018-05-19T00:38:44.296Z,8.50
2018-05-19T00:41:12.202Z,10.20
2018-05-19T00:43:40.109Z,8.23
2018-05-19T00:46:08.013Z,7.50
2018-05-19T00:48:35.942Z,8.00
2018-05-19T00:51:03.847Z,8.80
2018-05-19T00:53:31.761Z,8.57
2018-05-19T00:55:59.694Z,7.60
2018-05-19T00:58:27.590Z,8.97
2018-05-19T01:00:55.493Z,7.80
2018-05-19T01:03:23.382Z,7.90
2018-05-19T01:05:51.348Z,8.40
2018-05-19T01:08:19.247Z,8.87
2018-05-19T01:10:47.188Z,8.47
2018-05-19T01:13:15.086Z,8.13
2018-05-19T01:15:43.010Z,9.43
2018-05-19T01:18:10.909Z,8.87
2018-05-19T01:20:38.813Z,9.07
2018-05-19T01:23:06.713Z,10.57
2018-05-19T01:25:34.614Z,10.10
2018-05-19T01:28:02.522Z,9.40
2018-05-19T01:30:30.422Z,9.13
2018-05-19T01:32:58.501Z,9.80
2018-05-19T01:35:26.394Z,9.00
2018-05-19T01:37:54.288Z,8.57
2018-05-19T01:40:22.194Z,8.90
2018-05-19T01:42:50.106Z,9.30
2018-05-19T01:45:17.985Z,8.80
2018-05-19T01:47:45.889Z,8.90
2018-05-19T01:50:13.835Z,10.73
2018-05-19T01:52:41.746Z,9.40
2018-05-19T01:55:09.650Z,10.37
2018-05-19T01:57:37.583Z,9.10
2018-05-19T02:00:05.482Z,9.57
2018-05-19T02:02:33.418Z,9.13
2018-05-19T02:05:01.321Z,10.03
2018-05-19T02:07:29.675Z,10.03
2018-05-19T02:09:57.566Z,10.63
2018-05-19T02:12:25.462Z,9.63
2018-05-19T02:14:53.384Z,10.40
2018-05-19T02:17:21.282Z,10.87
2018-05-19T02:19:49.182Z,9.03
2018-05-19T02:22:17.080Z,9.60
2018-05-19T02:24:44.972Z,10.50
2018-05-19T02:27:12.894Z,9.90
2018-05-19T02:29:40.797Z,11.13
2018-05-19T02:32:08.698Z,11.43
2018-05-19T02:34:36.823Z,11.83
2018-05-19T02:37:04.744Z,11.77
2018-05-19T02:39:32.653Z,12.93
2018-05-19T02:42:00.562Z,11.73
2018-05-19T02:44:28.480Z,12.57
2018-05-19T02:46:56.413Z,11.30
2018-05-19T02:49:24.318Z,12.23
2018-05-19T02:51:52.210Z,13.03
2018-05-19T02:54:20.119Z,13.83
2018-05-19T02:56:48.026Z,19.60
2018-05-19T02:59:15.917Z,14.47
2018-05-19T03:01:43.818Z,13.97
2018-05-19T03:04:11.731Z,13.40
2018-05-19T03:06:39.613Z,13.97
2018-05-19T03:09:07.497Z,14.53
2018-05-19T03:11:35.388Z,12.47
2018-05-19T03:14:03.289Z,14.00
2018-05-19T03:16:31.190Z,16.00
2018-05-19T03:18:59.086Z,14.57
2018-05-19T03:21:26.993Z,14.20
2018-05-19T03:23:54.891Z,12.47
2018-05-19T03:26:22.786Z,14.83
2018-05-19T03:28:50.677Z,16.87
2018-05-19T03:31:18.618Z,16.17
2018-05-19T03:33:46.486Z,14.50
2018-05-19T03:36:14.641Z,15.97
2018-05-19T03:38:42.538Z,16.77
2018-05-19T03:41:10.454Z,15.93
2018-05-19T03:43:38.352Z,16.00
2018-05-19T03:46:06.258Z,14.17
2018-05-19T03:48:34.190Z,13.87
2018-05-19T03:51:02.082Z,16.47
2018-05-19T03:53:29.986Z,16.43
2018-05-19T03:55:57.884Z,15.77
2018-05-19T03:58:32.078Z,14.00
2018-05-19T04:01:06.314Z,16.03
2018-05-19T04:03:34.214Z,17.13
2018-05-19T04:06:02.204Z,16.07
2018-05-19T04:08:30.026Z,15.97
2018-05-19T04:10:57.926Z,16.43
2018-05-19T04:13:25.835Z,17.80
2018-05-19T04:15:53.721Z,17.60
2018-05-19T04:18:21.626Z,15.90
2018-05-19T04:20:49.525Z,16.87
2018-05-19T04:23:17.422Z,15.67
2018-05-19T04:25:45.318Z,14.87
2018-05-19T04:28:13.272Z,16.70
2018-05-19T04:30:41.166Z,16.20
2018-05-19T04:33:09.057Z,15.87
2018-05-19T04:35:36.957Z,16.50
2018-05-19T04:38:05.027Z,15.07
2018-05-19T04:40:32.923Z,15.40
2018-05-19T04:43:00.815Z,15.40
2018-05-19T04:45:28.701Z,14.93
2018-05-19T04:47:56.606Z,14.93
2018-05-19T04:50:24.497Z,17.67
2018-05-19T04:52:52.407Z,17.07
2018-05-19T04:55:20.324Z,15.60
2018-05-19T04:57:48.218Z,14.40
2018-05-19T05:00:16.120Z,15.77
2018-05-19T05:02:44.027Z,16.73
2018-05-19T05:05:11.929Z,16.83
2018-05-19T05:07:39.877Z,17.77
2018-05-19T05:10:08.082Z,17.37
2018-05-19T05:12:35.999Z,15.43
2018-05-19T05:15:03.943Z,16.27
2018-05-19T05:17:31.840Z,15.37
2018-05-19T05:19:59.737Z,16.43
2018-05-19T05:22:27.629Z,16.10
2018-05-19T05:24:55.530Z,14.93
2018-05-19T05:27:23.441Z,15.07
2018-05-19T05:29:51.350Z,16.20
2018-05-19T05:32:19.272Z,17.37
2018-05-19T05:34:48.043Z,16.60
2018-05-19T05:37:15.940Z,18.53
2018-05-19T05:39:44.070Z,17.30
2018-05-19T05:42:12.016Z,18.00
2018-05-19T05:44:39.933Z,19.20
2018-05-19T05:47:07.833Z,19.20
2018-05-19T05:49:35.736Z,18.23
2018-05-19T05:52:03.622Z,17.93
2018-05-19T05:54:31.535Z,15.97
2018-05-19T05:56:59.445Z,17.67
2018-05-19T05:59:27.341Z,18.00
2018-05-19T06:01:55.252Z,17.57
2018-05-19T06:04:23.170Z,16.27
2018-05-19T06:06:51.121Z,17.47
2018-05-19T06:09:19.009Z,16.97
2018-05-19T06:11:46.905Z,17.10
2018-05-19T06:14:14.802Z,16.03
2018-05-19T06:16:42.730Z,16.00
2018-05-19T06:19:11.393Z,16.57
2018-05-19T06:21:39.277Z,15.33
2018-05-19T06:24:07.173Z,16.53
2018-05-19T06:26:35.101Z,15.27
2018-05-19T06:29:03.038Z,16.43
2018-05-19T06:31:30.929Z,16.90
2018-05-19T06:33:58.836Z,16.30
2018-05-19T06:36:26.746Z,19.30
2018-05-19T06:38:54.654Z,18.20
2018-05-19T06:41:22.756Z,16.50
2018-05-19T06:43:50.658Z,19.40
2018-05-19T06:46:18.585Z,16.53
2018-05-19T06:48:46.553Z,17.53
2018-05-19T06:51:14.441Z,19.00
2018-05-19T06:53:42.339Z,20.60
2018-05-19T06:56:10.242Z,19.03
2018-05-19T06:58:38.129Z,19.03
2018-05-19T07:01:06.029Z,17.87
2018-05-19T07:03:33.937Z,17.30
2018-05-19T07:06:01.840Z,19.50
2018-05-19T07:08:29.792Z,17.13
2018-05-19T07:10:58.714Z,17.37
2018-05-19T07:13:26.613Z,20.00
2018-05-19T07:15:54.522Z,20.80
2018-05-19T07:18:22.446Z,18.17
2018-05-19T07:20:50.356Z,20.40
2018-05-19T07:23:18.249Z,18.93
2018-05-19T07:25:46.154Z,17.90
2018-05-19T07:28:14.065Z,19.87
2018-05-19T07:30:41.977Z,17.63
2018-05-19T07:33:09.884Z,20.40
2018-05-19T07:35:37.888Z,18.97
2018-05-19T07:38:05.694Z,19.00
2018-05-19T07:40:33.688Z,20.67
2018-05-19T07:43:01.790Z,19.53
2018-05-19T07:45:29.706Z,19.90
2018-05-19T07:47:57.601Z,17.13
2018-05-19T07:50:25.497Z,19.10
2018-05-19T07:52:53.450Z,23.00
2018-05-19T07:55:21.349Z,21.13
2018-05-19T07:57:49.247Z,20.27
2018-05-19T08:00:17.146Z,17.43
2018-05-19T08:02:45.072Z,17.67
2018-05-19T08:05:12.975Z,18.03
2018-05-19T08:07:40.861Z,20.87
2018-05-19T08:10:08.778Z,21.43
2018-05-19T08:12:36.665Z,20.23
2018-05-19T08:15:04.553Z,20.70
2018-05-19T08:17:32.437Z,19.40
2018-05-19T08:20:00.345Z,18.43
2018-05-19T08:22:28.266Z,21.23
2018-05-19T08:24:56.149Z,19.70
2018-05-19T08:27:24.093Z,19.47
2018-05-19T08:29:52.065Z,21.70
2018-05-19T08:32:19.968Z,18.60
2018-05-19T08:34:47.881Z,19.20
2018-05-19T08:37:15.782Z,20.37
2018-05-19T08:39:43.682Z,19.83
2018-05-19T08:42:11.606Z,19.53
2018-05-19T08:44:39.650Z,19.80
2018-05-19T08:47:07.564Z,19.43
2018-05-19T08:49:35.445Z,17.90
2018-05-19T08:52:03.335Z,19.23
2018-05-19T08:54:31.231Z,18.40
2018-05-19T08:56:59.153Z,19.47
2018-05-19T08:59:27.038Z,18.97
2018-05-19T09:01:55.107Z,20.00
2018-05-19T09:04:23.106Z,18.60
2018-05-19T09:06:50.998Z,18.73
2018-05-19T09:09:18.933Z,16.23
2018-05-19T09:11:46.881Z,14.73
2018-05-19T09:14:14.798Z,14.00
2018-05-19T09:16:42.767Z,14.37
2018-05-19T09:19:10.666Z,16.60
2018-05-19T09:21:38.572Z,17.10
2018-05-19T09:24:06.457Z,13.93
2018-05-19T09:26:34.365Z,18.17
2018-05-19T09:29:02.251Z,15.80
2018-05-19T09:31:30.183Z,16.07
2018-05-19T09:33:58.077Z,15.67
2018-05-19T09:36:25.986Z,16.27
2018-05-19T09:38:53.941Z,16.30
2018-05-19T09:41:21.842Z,16.20
2018-05-19T09:43:49.737Z,16.50
2018-05-19T09:46:17.856Z,17.47
2018-05-19T09:48:45.762Z,15.57
2018-05-19T09:51:13.650Z,15.70
2018-05-19T09:53:41.606Z,13.40
2018-05-19T09:56:09.510Z,13.40
2018-05-19T09:58:37.400Z,13.80
2018-05-19T10:01:05.296Z,15.13
2018-05-19T10:03:33.190Z,15.23
2018-05-19T10:06:01.101Z,14.53
2018-05-19T10:08:29.034Z,16.37
2018-05-19T10:10:56.942Z,19.07
2018-05-19T10:13:24.841Z,19.20
2018-05-19T10:15:52.732Z,17.17
2018-05-19T10:18:20.660Z,17.73
2018-05-19T10:20:48.557Z,18.23
2018-05-19T10:23:16.506Z,15.40
2018-05-19T10:25:44.430Z,15.87
2018-05-19T10:28:12.356Z,15.80
2018-05-19T10:30:40.253Z,15.30
2018-05-19T10:33:08.139Z,15.73
2018-05-19T10:35:36.139Z,14.57
2018-05-19T10:38:03.958Z,15.20
2018-05-19T10:40:31.945Z,15.70
2018-05-19T10:42:59.840Z,15.13
2018-05-19T10:45:27.737Z,11.77
2018-05-19T10:47:55.753Z,11.57
2018-05-19T10:50:23.606Z,11.67
2018-05-19T10:52:51.499Z,12.67
2018-05-19T10:55:19.448Z,11.00
2018-05-19T10:57:47.385Z,9.20
2018-05-19T11:00:15.295Z,9.73
2018-05-19T11:02:43.183Z,10.40
2018-05-19T11:05:11.095Z,9.60
2018-05-19T11:07:38.981Z,9.43
2018-05-19T11:10:06.866Z,9.03
2018-05-19T11:12:34.753Z,7.80
2018-05-19T11:15:02.653Z,8.80
2018-05-19T11:17:30.566Z,8.73
2018-05-19T11:19:58.474Z,8.63
2018-05-19T11:22:26.367Z,9.40
2018-05-19T11:24:54.285Z,9.03
2018-05-19T11:27:22.182Z,9.37
2018-05-19T11:29:50.103Z,8.97
2018-05-19T11:32:17.998Z,10.10
2018-05-19T11:34:45.902Z,10.40
2018-05-19T11:37:14.086Z,10.67
2018-05-19T11:39:42.098Z,9.43
2018-05-19T11:42:09.998Z,10.10
2018-05-19T11:44:37.890Z,11.33
2018-05-19T11:47:05.806Z,10.30
2018-05-19T11:49:33.901Z,11.47
2018-05-19T11:52:01.831Z,10.53
2018-05-19T11:54:29.735Z,9.30
2018-05-19T11:56:57.735Z,8.97
2018-05-19T11:59:25.586Z,9.00
2018-05-19T12:01:53.463Z,8.70
2018-05-19T12:04:21.378Z,7.80
2018-05-19T12:06:49.274Z,10.10
2018-05-19T12:09:17.252Z,9.33
2018-05-19T12:11:45.156Z,8.23
2018-05-19T12:14:13.054Z,8.40
2018-05-19T12:16:40.981Z,9.03
2018-05-19T12:19:08.870Z,9.37
2018-05-19T12:21:36.774Z,11.70
2018-05-19T12:24:04.665Z,11.40
2018-05-19T12:26:32.562Z,10.40
2018-05-19T12:29:00.474Z,11.70
2018-05-19T12:31:28.367Z,9.67
2018-05-19T12:33:56.281Z,9.30
2018-05-19T12:36:24.177Z,10.83
2018-05-19T12:38:52.066Z,9.30
2018-05-19T12:41:19.974Z,7.83
2018-05-19T12:43:47.869Z,7.97
2018-05-19T12:46:15.775Z,7.67
2018-05-19T12:48:43.713Z,8.50
2018-05-19T12:51:11.806Z,8.37
2018-05-19T12:53:39.725Z,8.47
2018-05-19T12:56:07.618Z,9.60
2018-05-19T12:58:35.553Z,8.40
2018-05-19T13:01:03.469Z,8.50
2018-05-19T13:03:31.377Z,9.40
2018-05-19T13:05:59.277Z,9.23
2018-05-19T13:08:27.176Z,7.73
2018-05-19T13:10:55.094Z,8.70
2018-05-19T13:13:23.014Z,8.47
2018-05-19T13:15:50.936Z,7.40
2018-05-19T13:18:19.509Z,9.07
2018-05-19T13:20:49.148Z,7.97
2018-05-19T13:23:19.306Z,8.87
2018-05-19T13:25:49.891Z,8.40
2018-05-19T13:28:20.809Z,7.57
2018-05-19T13:30:52.011Z,6.90
2018-05-19T13:33:20.790Z,7.27
2018-05-19T13:35:48.649Z,7.57
2018-05-19T13:38:16.585Z,6.70
2018-05-19T13:40:44.517Z,6.70
2018-05-19T13:43:12.433Z,7.43
2018-05-19T13:45:40.349Z,5.77
2018-05-19T13:48:08.274Z,6.70
2018-05-19T13:50:36.186Z,7.10
2018-05-19T13:53:04.289Z,6.03
2018-05-19T13:55:32.218Z,6.63
2018-05-19T13:58:00.114Z,7.50
2018-05-19T14:00:28.099Z,7.40
2018-05-19T14:02:57.047Z,7.80
2018-05-19T14:05:27.024Z,10.13
2018-05-19T14:07:57.158Z,9.50
2018-05-19T14:10:26.814Z,8.10
2018-05-19T14:12:56.986Z,8.70
2018-05-19T14:15:26.650Z,9.73
2018-05-19T14:17:55.338Z,8.70
2018-05-19T14:20:25.126Z,9.50
2018-05-19T14:22:53.813Z,9.20
2018-05-19T14:25:21.706Z,8.87
2018-05-19T14:27:49.598Z,9.07
2018-05-19T14:30:17.498Z,8.57
2018-05-19T14:32:45.403Z,7.60
2018-05-19T14:35:13.306Z,9.00
2018-05-19T14:37:41.221Z,8.80
2018-05-19T14:40:09.114Z,9.47
2018-05-19T14:42:37.009Z,8.30
2018-05-19T14:45:04.942Z,8.10
2018-05-19T14:47:32.856Z,9.00
2018-05-19T14:50:00.754Z,8.33
2018-05-19T14:52:28.645Z,8.37
2018-05-19T14:54:56.747Z,8.50
2018-05-19T14:57:24.642Z,8.57
2018-05-19T14:59:53.558Z,9.03
2018-05-19T15:02:21.462Z,10.23
2018-05-19T15:04:49.409Z,8.10
2018-05-19T15:07:17.361Z,8.60
2018-05-19T15:09:45.249Z,9.00
2018-05-19T15:12:13.158Z,9.80
2018-05-19T15:14:41.070Z,10.93
2018-05-19T15:17:08.958Z,10.90
2018-05-19T15:19:36.869Z,10.67
2018-05-19T15:22:04.773Z,10.00
2018-05-19T15:24:32.658Z,10.27
2018-05-19T15:27:00.578Z,12.70
2018-05-19T15:29:28.466Z,14.60
2018-05-19T15:31:56.368Z,10.93
2018-05-19T15:34:24.283Z,11.53
2018-05-19T15:36:52.182Z,12.50
2018-05-19T15:39:20.078Z,11.40
2018-05-19T15:41:47.978Z,10.57
2018-05-19T15:44:15.900Z,11.40
2018-05-19T15:46:43.817Z,10.53
2018-05-19T15:49:11.713Z,11.10
2018-05-19T15:51:39.617Z,10.20
2018-05-19T15:54:07.521Z,10.80
2018-05-19T15:56:35.678Z,12.80
2018-05-19T15:59:03.565Z,20.10
2018-05-19T16:01:31.518Z,23.10
2018-05-19T16:03:59.438Z,12.27
2018-05-19T16:06:27.337Z,16.87
2018-05-19T16:08:55.235Z,13.50
2018-05-19T16:11:23.127Z,15.97
2018-05-19T16:13:51.017Z,13.27
2018-05-19T16:16:18.942Z,12.73
2018-05-19T16:18:46.845Z,12.30
2018-05-19T16:21:14.755Z,12.43
2018-05-19T16:23:42.692Z,13.40
2018-05-19T16:26:10.577Z,13.33
2018-05-19T16:28:38.473Z,13.30
2018-05-19T16:31:06.394Z,12.17
2018-05-19T16:33:34.297Z,13.10
2018-05-19T16:36:02.224Z,11.50
2018-05-19T16:38:30.123Z,11.67
2018-05-19T16:40:58.093Z,10.93
2018-05-19T16:43:26.017Z,12.47
2018-05-19T16:45:53.922Z,12.90
2018-05-19T16:48:21.833Z,10.90
2018-05-19T16:50:49.741Z,10.27
2018-05-19T16:53:17.659Z,10.23
2018-05-19T16:55:45.573Z,11.90
2018-05-19T16:58:13.727Z,11.87
2018-05-19T17:00:41.658Z,10.20
2018-05-19T17:03:09.549Z,11.30
2018-05-19T17:05:37.453Z,14.20
2018-05-19T17:08:05.375Z,14.07
2018-05-19T17:10:33.299Z,12.13
2018-05-19T17:13:01.200Z,12.00
2018-05-19T17:15:29.102Z,11.07
2018-05-19T17:17:57.058Z,10.93
2018-05-19T17:20:24.967Z,11.20
2018-05-19T17:22:52.886Z,9.53
2018-05-19T17:25:21.797Z,10.77
2018-05-19T17:27:49.687Z,15.90
2018-05-19T17:30:17.610Z,34.60
2018-05-19T17:32:45.508Z,30.57
2018-05-19T17:35:13.403Z,20.77
2018-05-19T17:37:41.290Z,16.37
2018-05-19T17:40:09.189Z,54.53
2018-05-19T17:42:37.094Z,79.73
2018-05-19T17:45:04.994Z,71.00
2018-05-19T17:47:32.877Z,60.20
2018-05-19T17:50:00.775Z,30.13
2018-05-19T17:52:28.665Z,23.47
2018-05-19T17:54:56.557Z,36.40
2018-05-19T17:57:24.465Z,29.53
2018-05-19T17:59:52.550Z,20.20
2018-05-19T18:02:20.471Z,16.07
2018-05-19T18:04:48.358Z,12.70
2018-05-19T18:07:16.249Z,16.50
2018-05-19T18:09:44.152Z,12.17
2018-05-19T18:12:12.061Z,11.23
2018-05-19T18:14:39.969Z,11.83
2018-05-19T18:17:07.862Z,13.20
2018-05-19T18:19:35.766Z,11.47
2018-05-19T18:22:03.669Z,12.30
2018-05-19T18:24:31.569Z,11.50
2018-05-19T18:26:59.465Z,11.37
2018-05-19T18:29:27.393Z,10.10
2018-05-19T18:31:55.305Z,9.43
2018-05-19T18:34:23.259Z,9.07
2018-05-19T18:36:51.201Z,15.03
2018-05-19T18:39:19.094Z,14.30
2018-05-19T18:41:46.998Z,11.07
2018-05-19T18:44:14.902Z,11.70
2018-05-19T18:46:42.798Z,11.30
2018-05-19T18:49:10.686Z,11.33
2018-05-19T18:51:44.737Z,11.73
2018-05-19T18:54:12.630Z,10.70
2018-05-19T18:56:40.545Z,8.77
2018-05-19T18:59:08.453Z,9.07
2018-05-19T19:01:36.561Z,8.33
2018-05-19T19:04:04.453Z,10.33
2018-05-19T19:06:32.347Z,9.70
2018-05-19T19:09:00.245Z,10.37
2018-05-19T19:11:28.141Z,13.23
2018-05-19T19:13:56.057Z,24.70
2018-05-19T19:16:23.994Z,20.17
2018-05-19T19:18:51.881Z,11.73
2018-05-19T19:21:19.807Z,9.33
2018-05-19T19:23:47.741Z,7.50
2018-05-19T19:26:15.630Z,6.23
2018-05-19T19:28:43.537Z,5.30
2018-05-19T19:31:11.451Z,4.47
2018-05-19T19:33:39.349Z,5.20
2018-05-19T19:36:07.246Z,5.50
2018-05-19T19:38:36.112Z,5.10
2018-05-19T19:41:06.914Z,4.73
2018-05-19T19:43:34.843Z,5.40
2018-05-19T19:46:02.746Z,5.07
2018-05-19T19:48:30.670Z,5.53
2018-05-19T19:50:58.555Z,14.00
2018-05-19T19:53:26.454Z,15.67
2018-05-19T19:55:54.343Z,8.60
2018-05-19T19:58:22.272Z,6.23
2018-05-19T20:00:50.178Z,6.00
2018-05-19T20:03:18.318Z,5.50
2018-05-19T20:05:46.221Z,5.80
2018-05-19T20:08:14.125Z,4.20
2018-05-19T20:10:42.015Z,4.57
2018-05-19T20:13:09.926Z,4.27
2018-05-19T20:15:37.842Z,4.00
2018-05-19T20:18:05.762Z,4.40
2018-05-19T20:20:33.668Z,3.80
2018-05-19T20:23:02.466Z,4.67
2018-05-19T20:25:30.377Z,4.10
2018-05-19T20:27:58.266Z,3.90
2018-05-19T20:30:26.169Z,4.00
2018-05-19T20:32:54.073Z,3.80
2018-05-19T20:35:22.006Z,3.83
2018-05-19T20:37:49.931Z,4.33
2018-05-19T20:40:17.815Z,4.10
2018-05-19T20:42:45.705Z,4.07
2018-05-19T20:45:13.597Z,3.97
2018-05-19T20:47:41.618Z,4.60
2018-05-19T20:50:09.875Z,4.60
2018-05-19T20:52:37.777Z,4.67
2018-05-19T20:55:05.703Z,4.13
2018-05-19T20:57:33.598Z,5.67
2018-05-19T21:00:01.492Z,4.43
2018-05-19T21:02:29.394Z,4.30
2018-05-19T21:04:57.573Z,3.70
2018-05-19T21:07:25.473Z,3.30
2018-05-19T21:09:53.372Z,3.50
2018-05-19T21:12:21.274Z,2.50
2018-05-19T21:14:49.169Z,3.00
2018-05-19T21:17:17.057Z,4.07
2018-05-19T21:19:45.014Z,3.27
2018-05-19T21:22:12.897Z,3.50
2018-05-19T21:24:40.822Z,3.60
2018-05-19T21:27:08.721Z,3.27
2018-05-19T21:29:36.669Z,3.37
2018-05-19T21:32:04.558Z,3.47
2018-05-19T21:34:32.450Z,3.43
2018-05-19T21:37:00.377Z,3.33
2018-05-19T21:39:28.273Z,3.30
2018-05-19T21:41:56.150Z,3.90
2018-05-19T21:44:24.050Z,6.20
2018-05-19T21:46:51.998Z,7.90
2018-05-19T21:49:19.914Z,4.60
2018-05-19T21:51:47.825Z,4.73
2018-05-19T21:54:15.799Z,3.97
2018-05-19T21:56:43.705Z,4.10
2018-05-19T21:59:11.606Z,3.90
2018-05-19T22:01:39.503Z,3.70
2018-05-19T22:04:07.418Z,3.50
2018-05-19T22:06:35.489Z,3.33
2018-05-19T22:09:04.345Z,3.50
2018-05-19T22:11:32.245Z,3.40
2018-05-19T22:14:00.141Z,3.60
2018-05-19T22:16:28.039Z,3.63
2018-05-19T22:18:56.265Z,3.87
2018-05-19T22:21:24.163Z,3.27
2018-05-19T22:23:52.068Z,3.80
2018-05-19T22:26:19.981Z,3.47
2018-05-19T22:28:47.871Z,4.10
2018-05-19T22:31:15.783Z,4.03
2018-05-19T22:33:43.702Z,3.30
2018-05-19T22:36:11.607Z,3.70
2018-05-19T22:38:39.536Z,3.53
2018-05-19T22:41:07.435Z,3.63
2018-05-19T22:43:35.337Z,3.70
2018-05-19T22:46:03.240Z,3.70
2018-05-19T22:48:31.181Z,3.87
2018-05-19T22:50:59.073Z,4.47
2018-05-19T22:53:26.977Z,3.73
2018-05-19T22:55:54.882Z,4.17
2018-05-19T22:58:22.766Z,4.77
2018-05-19T23:00:50.700Z,3.80
2018-05-19T23:03:18.598Z,3.57
2018-05-19T23:05:46.500Z,3.90
2018-05-19T23:08:14.619Z,4.30
2018-05-19T23:10:42.534Z,4.60
2018-05-19T23:13:10.462Z,4.33
2018-05-19T23:15:38.362Z,3.80
2018-05-19T23:18:06.251Z,4.20
2018-05-19T23:20:34.142Z,4.33
2018-05-19T23:23:02.023Z,4.67
2018-05-19T23:25:29.925Z,4.23
2018-05-19T23:27:57.822Z,4.00
2018-05-19T23:30:25.721Z,3.90
2018-05-19T23:32:53.641Z,4.23
2018-05-19T23:35:21.589Z,3.97
2018-05-19T23:37:49.517Z,4.17
2018-05-19T23:40:17.400Z,4.30
2018-05-19T23:42:45.310Z,4.47
2018-05-19T23:45:13.209Z,4.00
2018-05-19T23:47:41.178Z,4.13
2018-05-19T23:50:09.085Z,3.70
2018-05-19T23:52:36.982Z,5.13
2018-05-19T23:55:04.871Z,4.60
2018-05-19T23:57:32.766Z,4.53
